createdAt,value
2023-03-15T00:00:23.780Z,1.08
2023-03-15T00:02:50.692Z,0.90
2023-03-15T00:05:17.522Z,1.00
2023-03-15T00:07:44.139Z,0.80
2023-03-15T00:10:11.634Z,0.80
2023-03-15T00:12:38.290Z,1.10
2023-03-15T00:15:05.452Z,1.10
2023-03-15T00:17:34.691Z,0.90
2023-03-15T00:20:01.886Z,0.93
2023-03-15T00:22:28.542Z,0.80
2023-03-15T00:24:55.254Z,0.80
2023-03-15T00:27:21.934Z,0.80
2023-03-15T00:29:48.723Z,0.70
2023-03-15T00:32:15.519Z,1.00
2023-03-15T00:34:42.310Z,0.70
2023-03-15T00:37:09.012Z,0.80
2023-03-15T00:39:37.804Z,0.70
2023-03-15T00:42:04.658Z,0.90
2023-03-15T00:44:31.539Z,0.90
2023-03-15T00:46:58.185Z,0.80
2023-03-15T00:49:24.982Z,0.68
2023-03-15T00:51:55.241Z,0.98
2023-03-15T00:54:23.690Z,0.80
2023-03-15T00:56:50.699Z,0.65
2023-03-15T00:59:17.377Z,0.75
2023-03-15T01:01:44.911Z,0.73
2023-03-15T01:04:14.655Z,0.93
2023-03-15T01:06:42.422Z,0.80
2023-03-15T01:09:09.980Z,0.82
2023-03-15T01:11:36.791Z,0.90
2023-03-15T01:14:08.765Z,0.70
2023-03-15T01:16:35.784Z,0.80
2023-03-15T01:19:02.603Z,0.70
2023-03-15T01:21:29.401Z,0.80
2023-03-15T01:23:56.192Z,0.93
2023-03-15T01:26:23.293Z,0.75
2023-03-15T01:28:50.134Z,0.80
2023-03-15T01:31:28.317Z,0.80
2023-03-15T01:33:55.266Z,0.75
2023-03-15T01:36:22.227Z,0.93
2023-03-15T01:38:52.405Z,0.90
2023-03-15T01:41:19.456Z,0.70
2023-03-15T01:43:49.094Z,0.75
2023-03-15T01:46:23.713Z,0.80
2023-03-15T01:49:06.274Z,0.90
2023-03-15T01:52:02.817Z,0.70
2023-03-15T01:54:30.901Z,0.80
2023-03-15T01:57:05.988Z,1.15
2023-03-15T01:59:37.525Z,0.80
2023-03-15T02:04:38.336Z,0.70
2023-03-15T02:07:05.974Z,0.70
2023-03-15T02:09:47.645Z,0.73
2023-03-15T02:14:42.040Z,0.70
2023-03-15T02:17:08.838Z,0.75
2023-03-15T02:19:40.668Z,0.70
2023-03-15T02:22:17.462Z,0.90
2023-03-15T02:24:44.362Z,0.85
2023-03-15T02:27:11.555Z,0.80
2023-03-15T02:29:38.352Z,0.77
2023-03-15T02:32:05.402Z,0.65
2023-03-15T02:34:32.498Z,0.70
2023-03-15T02:36:59.191Z,0.90
2023-03-15T02:39:27.198Z,0.60
2023-03-15T02:41:57.025Z,0.75
2023-03-15T02:44:30.404Z,1.00
2023-03-15T02:47:03.397Z,0.90
2023-03-15T02:49:35.429Z,0.70
2023-03-15T02:52:02.028Z,0.70
2023-03-15T02:54:28.751Z,0.80
2023-03-15T02:56:55.408Z,0.75
2023-03-15T02:59:22.049Z,0.88
2023-03-15T03:01:48.777Z,1.10
2023-03-15T03:04:15.489Z,0.60
2023-03-15T03:06:43.773Z,0.82
2023-03-15T03:09:11.563Z,0.80
2023-03-15T03:11:38.583Z,0.80
2023-03-15T03:14:05.721Z,0.93
2023-03-15T03:16:32.499Z,0.75
2023-03-15T03:18:59.532Z,0.75
2023-03-15T03:21:26.246Z,0.80
2023-03-15T03:23:54.597Z,0.70
2023-03-15T03:26:21.225Z,0.80
2023-03-15T03:28:48.711Z,0.77
2023-03-15T03:31:17.479Z,0.90
2023-03-15T03:33:44.247Z,0.70
2023-03-15T03:36:13.059Z,0.75
2023-03-15T03:38:44.463Z,0.80
2023-03-15T03:41:12.160Z,0.73
2023-03-15T03:43:38.965Z,1.00
2023-03-15T03:46:06.714Z,0.85
2023-03-15T03:48:33.428Z,0.52
2023-03-15T03:51:00.133Z,0.80
2023-03-15T03:53:26.893Z,0.60
2023-03-15T03:55:54.516Z,0.93
2023-03-15T03:58:22.208Z,0.65
2023-03-15T04:00:48.894Z,0.80
2023-03-15T04:03:15.663Z,0.80
2023-03-15T04:05:42.469Z,0.75
2023-03-15T04:08:09.110Z,0.82
2023-03-15T04:10:35.727Z,0.93
2023-03-15T04:13:03.354Z,0.98
2023-03-15T04:15:31.383Z,0.70
2023-03-15T04:17:58.286Z,0.95
2023-03-15T04:20:28.483Z,0.93
2023-03-15T04:22:55.057Z,0.90
2023-03-15T04:25:26.363Z,0.70
2023-03-15T04:28:02.745Z,0.90
2023-03-15T04:30:29.954Z,0.70
2023-03-15T04:33:00.300Z,0.60
2023-03-15T04:35:28.903Z,1.00
2023-03-15T04:37:56.910Z,0.85
2023-03-15T04:40:24.608Z,1.00
2023-03-15T04:42:52.283Z,0.80
2023-03-15T04:45:18.949Z,0.90
2023-03-15T04:47:45.568Z,1.00
2023-03-15T04:50:13.506Z,0.85
2023-03-15T04:52:40.430Z,0.80
2023-03-15T04:55:07.328Z,0.70
2023-03-15T04:57:34.082Z,0.80
2023-03-15T05:00:00.880Z,0.90
2023-03-15T05:02:27.597Z,0.80
2023-03-15T05:04:54.301Z,1.02
2023-03-15T05:07:20.976Z,0.88
2023-03-15T05:09:47.931Z,0.80
2023-03-15T05:12:14.570Z,0.60
2023-03-15T05:14:41.273Z,1.00
2023-03-15T05:17:08.332Z,0.70
2023-03-15T05:19:35.310Z,0.80
2023-03-15T05:22:04.090Z,0.82
2023-03-15T05:24:30.964Z,0.82
2023-03-15T05:26:57.859Z,0.70
2023-03-15T05:29:24.564Z,0.80
2023-03-15T05:31:52.308Z,0.80
2023-03-15T05:34:19.688Z,0.70
2023-03-15T05:36:46.330Z,0.88
2023-03-15T05:39:16.606Z,0.90
2023-03-15T05:41:43.427Z,0.70
2023-03-15T05:44:10.251Z,0.80
2023-03-15T05:46:36.948Z,0.70
2023-03-15T05:49:04.312Z,0.68
2023-03-15T05:51:31.019Z,0.65
2023-03-15T05:53:57.712Z,0.70
2023-03-15T05:56:24.556Z,1.15
2023-03-15T05:58:51.414Z,0.85
2023-03-15T06:01:18.118Z,0.73
2023-03-15T06:03:44.837Z,0.70
2023-03-15T06:06:11.608Z,0.70
2023-03-15T06:08:38.273Z,0.85
2023-03-15T06:11:04.939Z,0.70
2023-03-15T06:13:31.622Z,0.90
2023-03-15T06:15:58.290Z,0.77
2023-03-15T06:18:25.043Z,0.98
2023-03-15T06:20:51.888Z,1.13
2023-03-15T06:23:18.640Z,0.70
2023-03-15T06:25:45.393Z,0.80
2023-03-15T06:28:12.025Z,0.90
2023-03-15T06:30:38.786Z,0.90
2023-03-15T06:33:05.593Z,0.90
2023-03-15T06:35:32.310Z,0.82
2023-03-15T06:37:59.126Z,0.90
2023-03-15T06:40:25.724Z,0.90
2023-03-15T06:42:52.633Z,1.13
2023-03-15T06:45:19.518Z,1.00
2023-03-15T06:47:46.239Z,1.05
2023-03-15T06:50:13.073Z,1.33
2023-03-15T06:52:39.889Z,1.00
2023-03-15T06:55:07.045Z,1.20
2023-03-15T06:57:33.734Z,0.80
2023-03-15T07:00:00.452Z,1.25
2023-03-15T07:02:27.177Z,0.93
2023-03-15T07:04:53.884Z,0.90
2023-03-15T07:07:20.589Z,1.50
2023-03-15T07:09:47.313Z,1.00
2023-03-15T07:12:14.156Z,1.00
2023-03-15T07:14:40.813Z,0.95
2023-03-15T07:17:07.682Z,0.90
2023-03-15T07:19:35.778Z,1.30
2023-03-15T07:22:04.251Z,1.30
2023-03-15T07:24:31.164Z,1.00
2023-03-15T07:26:57.831Z,1.20
2023-03-15T07:29:24.767Z,1.10
2023-03-15T07:31:52.174Z,0.98
2023-03-15T07:34:19.591Z,1.25
2023-03-15T07:36:46.260Z,1.50
2023-03-15T07:39:13.817Z,1.23
2023-03-15T07:41:40.527Z,1.10
2023-03-15T07:44:07.228Z,1.50
2023-03-15T07:46:34.174Z,1.20
2023-03-15T07:49:00.915Z,1.30
2023-03-15T07:51:27.711Z,1.02
2023-03-15T07:53:54.392Z,1.20
2023-03-15T07:56:21.134Z,1.15
2023-03-15T07:58:47.797Z,1.38
2023-03-15T08:01:14.433Z,1.02
2023-03-15T08:03:41.494Z,1.42
2023-03-15T08:06:08.480Z,1.45
2023-03-15T08:08:35.216Z,1.30
2023-03-15T08:11:01.919Z,1.67
2023-03-15T08:13:28.631Z,0.98
2023-03-15T08:15:55.432Z,1.00
2023-03-15T08:18:22.192Z,1.05
2023-03-15T08:20:52.179Z,1.00
2023-03-15T08:23:18.820Z,1.13
2023-03-15T08:25:45.967Z,1.10
2023-03-15T08:28:12.936Z,1.00
2023-03-15T08:30:39.771Z,1.00
2023-03-15T08:33:08.010Z,1.05
2023-03-15T08:35:35.032Z,1.10
2023-03-15T08:38:02.909Z,1.05
2023-03-15T08:40:30.845Z,1.20
2023-03-15T08:42:58.034Z,1.20
2023-03-15T08:45:25.824Z,1.30
2023-03-15T08:47:59.329Z,1.40
2023-03-15T08:50:27.332Z,1.05
2023-03-15T08:52:54.391Z,1.00
2023-03-15T08:55:21.153Z,0.98
2023-03-15T08:57:47.905Z,1.23
2023-03-15T09:00:20.621Z,1.17
2023-03-15T09:02:49.100Z,1.30
2023-03-15T09:05:16.377Z,1.20
2023-03-15T09:07:44.001Z,1.33
2023-03-15T09:10:15.517Z,1.50
2023-03-15T09:12:47.829Z,1.20
2023-03-15T09:15:15.383Z,1.20
2023-03-15T09:17:42.832Z,1.30
2023-03-15T09:20:16.277Z,1.38
2023-03-15T09:22:44.027Z,1.00
2023-03-15T09:25:10.924Z,1.00
2023-03-15T09:27:38.018Z,1.02
2023-03-15T09:30:05.249Z,1.33
2023-03-15T09:32:36.304Z,1.38
2023-03-15T09:37:31.294Z,1.35
2023-03-15T09:39:57.999Z,1.50
2023-03-15T09:42:47.757Z,1.20
2023-03-15T09:45:27.106Z,1.20
2023-03-15T09:48:16.328Z,1.08
2023-03-15T09:50:53.677Z,1.13
2023-03-15T09:53:45.981Z,1.25
2023-03-15T09:56:31.413Z,1.00
2023-03-15T09:59:01.886Z,1.13
2023-03-15T10:01:37.607Z,1.50
2023-03-15T10:04:40.398Z,1.38
2023-03-15T10:07:12.559Z,1.35
2023-03-15T10:09:39.419Z,1.00
2023-03-15T10:12:18.560Z,1.13
2023-03-15T10:15:03.495Z,1.20
2023-03-15T10:17:32.992Z,1.10
2023-03-15T10:20:05.922Z,1.48
2023-03-15T10:22:47.314Z,1.20
2023-03-15T10:27:55.065Z,1.10
2023-03-15T10:30:26.030Z,1.42
2023-03-15T10:33:05.770Z,1.10
2023-03-15T10:35:32.858Z,1.42
2023-03-15T10:37:59.825Z,1.40
2023-03-15T10:40:46.308Z,1.08
2023-03-15T10:43:55.584Z,0.95
2023-03-15T10:46:23.513Z,1.20
2023-03-15T10:49:00.986Z,1.10
2023-03-15T10:51:33.657Z,1.10
2023-03-15T10:54:12.380Z,1.00
2023-03-15T10:57:00.744Z,1.13
2023-03-15T10:59:30.258Z,1.02
2023-03-15T11:02:24.297Z,1.50
2023-03-15T11:05:04.543Z,1.48
2023-03-15T11:07:35.899Z,1.20
2023-03-15T11:10:05.375Z,1.30
2023-03-15T11:12:33.778Z,1.13
2023-03-15T11:15:07.959Z,1.20
2023-03-15T11:17:41.732Z,1.10
2023-03-15T11:20:30.854Z,1.20
2023-03-15T11:22:59.983Z,1.08
2023-03-15T11:25:31.794Z,1.05
2023-03-15T11:27:59.103Z,1.30
2023-03-15T11:30:29.915Z,1.02
2023-03-15T11:33:02.006Z,1.27
2023-03-15T11:35:34.907Z,0.98
2023-03-15T11:38:37.547Z,1.20
2023-03-15T11:41:21.978Z,1.00
2023-03-15T11:44:03.668Z,1.20
2023-03-15T11:46:37.243Z,1.20
2023-03-15T11:49:23.808Z,1.23
2023-03-15T11:51:50.878Z,1.23
2023-03-15T11:54:20.027Z,0.93
2023-03-15T11:56:55.506Z,1.20
2023-03-15T11:59:33.372Z,1.02
2023-03-15T12:02:27.819Z,1.25
2023-03-15T12:04:57.041Z,1.15
2023-03-15T12:07:29.895Z,1.23
2023-03-15T12:10:03.362Z,1.20
2023-03-15T12:12:30.225Z,1.33
2023-03-15T12:15:14.878Z,1.00
2023-03-15T12:17:54.605Z,1.38
2023-03-15T12:20:37.723Z,1.00
2023-03-15T12:23:19.355Z,1.33
2023-03-15T12:28:31.566Z,0.90
2023-03-15T12:31:02.224Z,1.08
2023-03-15T12:33:31.833Z,1.20
2023-03-15T12:36:09.024Z,1.15
2023-03-15T12:38:38.518Z,1.95
2023-03-15T12:41:09.825Z,1.20
2023-03-15T12:43:43.691Z,1.65
2023-03-15T12:46:55.297Z,1.25
2023-03-15T12:49:25.015Z,1.08
2023-03-15T12:52:13.623Z,1.67
2023-03-15T12:54:48.865Z,1.00
2023-03-15T12:57:39.886Z,1.40
2023-03-15T13:00:15.332Z,1.35
2023-03-15T13:02:50.505Z,1.25
2023-03-15T13:05:34.569Z,1.10
2023-03-15T13:08:19.693Z,0.80
2023-03-15T13:11:11.814Z,0.93
2023-03-15T13:14:16.343Z,1.13
2023-03-15T13:16:49.510Z,1.05
2023-03-15T13:19:22.910Z,1.20
2023-03-15T13:21:53.602Z,1.35
2023-03-15T13:24:29.443Z,1.10
2023-03-15T13:27:01.780Z,1.10
2023-03-15T13:29:33.084Z,1.20
2023-03-15T13:32:10.580Z,1.38
2023-03-15T13:34:37.387Z,1.50
2023-03-15T13:37:04.215Z,1.02
2023-03-15T13:39:33.058Z,1.00
2023-03-15T13:42:02.076Z,1.10
2023-03-15T13:44:30.424Z,1.13
2023-03-15T13:46:59.834Z,1.10
2023-03-15T13:49:31.648Z,1.00
2023-03-15T13:51:58.972Z,1.25
2023-03-15T13:54:29.496Z,1.15
2023-03-15T13:57:03.624Z,1.00
2023-03-15T13:59:44.423Z,1.00
2023-03-15T14:02:21.839Z,1.10
2023-03-15T14:04:53.374Z,1.00
2023-03-15T14:07:26.128Z,1.17
2023-03-15T14:10:23.411Z,1.10
2023-03-15T14:12:50.799Z,1.02
2023-03-15T14:15:37.880Z,1.40
2023-03-15T14:18:07.524Z,1.58
2023-03-15T14:20:43.290Z,1.67
2023-03-15T14:23:12.927Z,1.60
2023-03-15T14:25:39.626Z,1.30
2023-03-15T14:28:07.032Z,1.40
2023-03-15T14:30:37.252Z,1.63
2023-03-15T14:33:07.629Z,1.50
2023-03-15T14:35:37.401Z,1.67
2023-03-15T14:38:09.662Z,1.48
2023-03-15T14:40:38.588Z,1.30
2023-03-15T14:43:07.546Z,1.33
2023-03-15T14:45:36.764Z,1.20
2023-03-15T14:48:28.344Z,1.23
2023-03-15T14:50:56.331Z,1.10
2023-03-15T14:53:26.171Z,1.20
2023-03-15T14:55:52.839Z,1.33
2023-03-15T14:58:21.490Z,1.17
2023-03-15T15:00:53.984Z,1.27
2023-03-15T15:03:24.202Z,0.90
2023-03-15T15:05:51.526Z,1.10
2023-03-15T15:08:24.775Z,1.00
2023-03-15T15:10:53.428Z,1.20
2023-03-15T15:13:28.387Z,1.10
2023-03-15T15:15:56.865Z,1.00
2023-03-15T15:18:25.799Z,1.00
2023-03-15T15:20:56.000Z,1.13
2023-03-15T15:23:27.783Z,1.20
2023-03-15T15:28:34.715Z,1.00
2023-03-15T15:31:02.642Z,1.00
2023-03-15T15:33:29.338Z,0.90
2023-03-15T15:35:57.997Z,0.85
2023-03-15T15:38:33.024Z,1.02
2023-03-15T15:40:59.800Z,1.42
2023-03-15T15:43:26.480Z,1.00
2023-03-15T15:45:53.182Z,1.00
2023-03-15T15:48:19.846Z,1.20
2023-03-15T15:50:46.547Z,1.00
2023-03-15T15:53:17.019Z,1.00
2023-03-15T15:55:44.352Z,0.88
2023-03-15T15:58:12.732Z,0.63
2023-03-15T16:00:39.498Z,1.02
2023-03-15T16:03:17.756Z,0.90
2023-03-15T16:05:44.723Z,0.90
2023-03-15T16:08:21.821Z,0.90
2023-03-15T16:10:48.612Z,0.70
2023-03-15T16:13:15.480Z,0.90
2023-03-15T16:15:42.220Z,0.90
2023-03-15T16:18:10.696Z,1.00
2023-03-15T16:20:39.430Z,1.10
2023-03-15T16:23:06.290Z,0.98
2023-03-15T16:25:35.949Z,0.80
2023-03-15T16:28:04.111Z,0.70
2023-03-15T16:30:33.103Z,0.90
2023-03-15T16:33:00.300Z,1.17
2023-03-15T16:35:36.091Z,1.05
2023-03-15T16:38:06.290Z,1.00
2023-03-15T16:40:34.746Z,0.85
2023-03-15T16:43:01.662Z,0.80
2023-03-15T16:45:28.715Z,0.68
2023-03-15T16:47:56.327Z,1.02
2023-03-15T16:50:23.713Z,0.70
2023-03-15T16:52:53.111Z,0.73
2023-03-15T16:55:24.395Z,0.80
2023-03-15T16:57:51.201Z,0.85
2023-03-15T17:00:20.136Z,1.13
2023-03-15T17:02:49.252Z,1.00
2023-03-15T17:05:18.946Z,0.70
2023-03-15T17:07:51.145Z,0.80
2023-03-15T17:10:23.082Z,0.88
2023-03-15T17:12:51.651Z,0.82
2023-03-15T17:15:20.458Z,0.75
2023-03-15T17:17:51.813Z,1.08
2023-03-15T17:20:21.758Z,0.90
2023-03-15T17:23:12.833Z,0.98
2023-03-15T17:25:41.093Z,0.80
2023-03-15T17:28:08.224Z,0.90
2023-03-15T17:30:36.881Z,0.90
2023-03-15T17:33:04.796Z,0.90
2023-03-15T17:35:35.818Z,0.93
2023-03-15T17:38:04.502Z,0.90
2023-03-15T17:40:33.706Z,0.82
2023-03-15T17:43:02.584Z,0.80
2023-03-15T17:45:34.340Z,1.10
2023-03-15T17:48:02.540Z,0.95
2023-03-15T17:50:32.123Z,0.90
2023-03-15T17:53:02.059Z,0.82
2023-03-15T17:55:34.244Z,0.80
2023-03-15T17:58:02.514Z,0.80
2023-03-15T18:00:32.516Z,0.70
2023-03-15T18:03:00.684Z,0.95
2023-03-15T18:05:29.530Z,1.02
2023-03-15T18:07:59.820Z,0.80
2023-03-15T18:10:33.521Z,0.90
2023-03-15T18:13:00.509Z,1.27
2023-03-15T18:15:27.379Z,1.02
2023-03-15T18:17:57.319Z,0.90
2023-03-15T18:20:24.454Z,1.00
2023-03-15T18:22:52.076Z,0.65
2023-03-15T18:25:21.844Z,0.90
2023-03-15T18:27:49.567Z,1.00
2023-03-15T18:30:22.190Z,0.80
2023-03-15T18:32:49.887Z,1.02
2023-03-15T18:35:26.483Z,1.40
2023-03-15T18:37:55.875Z,0.77
2023-03-15T18:40:23.304Z,1.10
2023-03-15T18:42:50.083Z,1.15
2023-03-15T18:45:18.312Z,0.90
2023-03-15T18:47:45.432Z,0.80
2023-03-15T18:50:13.248Z,1.23
2023-03-15T18:52:40.953Z,0.90
2023-03-15T18:55:08.770Z,1.00
2023-03-15T18:57:36.790Z,0.98
2023-03-15T19:00:14.214Z,1.00
2023-03-15T19:02:42.634Z,1.13
2023-03-15T19:05:10.501Z,1.10
2023-03-15T19:07:38.605Z,1.10
2023-03-15T19:10:07.640Z,1.00
2023-03-15T19:12:34.478Z,1.40
2023-03-15T19:15:01.189Z,0.95
2023-03-15T19:17:27.965Z,1.00
2023-03-15T19:19:54.597Z,1.23
2023-03-15T19:22:21.338Z,1.00
2023-03-15T19:24:48.052Z,1.00
2023-03-15T19:27:15.026Z,0.90
2023-03-15T19:29:41.721Z,1.10
2023-03-15T19:32:08.423Z,0.93
2023-03-15T19:34:35.114Z,1.17
2023-03-15T19:37:01.885Z,1.17
2023-03-15T19:39:28.541Z,1.05
2023-03-15T19:41:55.362Z,1.35
2023-03-15T19:44:22.590Z,1.35
2023-03-15T19:46:49.978Z,1.10
2023-03-15T19:49:16.826Z,0.93
2023-03-15T19:51:43.580Z,1.17
2023-03-15T19:54:10.586Z,1.58
2023-03-15T19:56:37.189Z,1.17
2023-03-15T19:59:05.384Z,1.35
2023-03-15T20:01:32.425Z,1.05
2023-03-15T20:03:59.459Z,1.30
2023-03-15T20:06:26.301Z,1.40
2023-03-15T20:08:52.979Z,1.10
2023-03-15T20:11:25.018Z,1.00
2023-03-15T20:13:52.903Z,1.38
2023-03-15T20:16:20.913Z,1.00
2023-03-15T20:18:51.031Z,1.13
2023-03-15T20:21:21.645Z,1.20
2023-03-15T20:23:49.906Z,1.27
2023-03-15T20:26:17.642Z,1.10
2023-03-15T20:28:46.994Z,1.30
2023-03-15T20:31:16.000Z,1.70
2023-03-15T20:33:44.090Z,1.20
2023-03-15T20:36:11.421Z,1.35
2023-03-15T20:38:38.451Z,1.17
2023-03-15T20:41:06.636Z,1.30
2023-03-15T20:43:33.656Z,1.42
2023-03-15T20:46:02.270Z,1.15
2023-03-15T20:48:31.105Z,1.50
2023-03-15T20:50:58.296Z,1.10
2023-03-15T20:53:25.854Z,1.23
2023-03-15T20:55:52.504Z,1.50
2023-03-15T20:58:19.371Z,1.30
2023-03-15T21:00:46.273Z,1.17
2023-03-15T21:03:15.232Z,1.30
2023-03-15T21:05:43.962Z,1.30
2023-03-15T21:08:11.086Z,1.25
2023-03-15T21:10:38.702Z,1.27
2023-03-15T21:13:10.106Z,1.55
2023-03-15T21:18:17.361Z,1.30
2023-03-15T21:20:44.664Z,1.50
2023-03-15T21:23:11.882Z,1.35
2023-03-15T21:25:38.814Z,1.50
2023-03-15T21:28:05.771Z,1.50
2023-03-15T21:30:32.938Z,1.40
2023-03-15T21:33:00.162Z,1.40
2023-03-15T21:35:27.176Z,1.40
2023-03-15T21:37:54.066Z,1.73
2023-03-15T21:40:21.041Z,1.70
2023-03-15T21:42:48.026Z,1.60
2023-03-15T21:45:15.279Z,1.50
2023-03-15T21:47:42.076Z,1.27
2023-03-15T21:50:11.164Z,1.60
2023-03-15T21:52:37.818Z,1.92
2023-03-15T21:55:05.100Z,1.88
2023-03-15T21:57:33.820Z,1.92
2023-03-15T22:00:01.151Z,1.60
2023-03-15T22:02:27.812Z,1.67
2023-03-15T22:04:54.803Z,1.50
2023-03-15T22:07:21.528Z,1.77
2023-03-15T22:09:48.299Z,1.60
2023-03-15T22:12:15.643Z,1.50
2023-03-15T22:14:42.321Z,1.65
2023-03-15T22:17:09.041Z,1.70
2023-03-15T22:19:35.806Z,2.00
2023-03-15T22:22:02.589Z,1.80
2023-03-15T22:24:29.469Z,1.92
2023-03-15T22:26:56.656Z,2.17
2023-03-15T22:29:23.337Z,1.90
2023-03-15T22:31:49.994Z,2.38
2023-03-15T22:34:16.637Z,1.67
2023-03-15T22:36:43.470Z,2.00
2023-03-15T22:39:10.320Z,2.20
2023-03-15T22:41:37.183Z,1.95
2023-03-15T22:44:04.100Z,2.13
2023-03-15T22:46:34.815Z,2.03
2023-03-15T22:49:02.036Z,2.35
2023-03-15T22:51:28.798Z,1.58
2023-03-15T22:53:55.482Z,1.60
2023-03-15T22:56:22.214Z,1.80
2023-03-15T22:58:49.259Z,1.85
2023-03-15T23:01:16.002Z,1.95
2023-03-15T23:03:43.612Z,2.30
2023-03-15T23:06:10.277Z,2.13
2023-03-15T23:08:36.907Z,1.67
2023-03-15T23:11:04.010Z,1.92
2023-03-15T23:13:31.042Z,1.95
2023-03-15T23:15:57.996Z,2.17
2023-03-15T23:18:24.820Z,2.10
2023-03-15T23:20:51.515Z,1.80
2023-03-15T23:23:18.223Z,1.95
2023-03-15T23:25:46.016Z,1.45
2023-03-15T23:28:13.717Z,1.80
2023-03-15T23:30:40.490Z,1.90
2023-03-15T23:33:08.440Z,2.00
2023-03-15T23:35:35.450Z,1.92
2023-03-15T23:38:02.407Z,2.20
2023-03-15T23:40:30.077Z,1.73
2023-03-15T23:42:59.193Z,1.70
2023-03-15T23:45:29.548Z,1.85
2023-03-15T23:47:56.993Z,2.00
2023-03-15T23:50:25.868Z,2.00
2023-03-15T23:52:53.794Z,1.83
2023-03-15T23:55:21.842Z,1.92
2023-03-15T23:57:48.567Z,1.70
